Time;durP1;ratioP1;P1;durP2;ratioP2;P2;SDS_P1;SDS_P2;PMS_P1;PMS_P2;Temp;Humidity;BMP_temperature;BMP_pressure;BME280_temperature;BME280_humidity;BME280_pressure;Samples;Min_cycle;Max_cycle;Signal;HPM_P1;HPM_P2
2021/12/03 00:01:59;;;;;;;1.75;1.65;;;;;;;1.98;79.36;100554.38;5143042;28;20462;-86
2021/12/03 00:04:30;;;;;;;1.08;1.08;;;;;;;2.06;78.95;100556.13;5154913;28;20045;-86
2021/12/03 00:07:01;;;;;;;1.10;1.10;;;;;;;2.11;78.72;100560.44;5180966;28;20348;-86
2021/12/03 00:09:35;;;;;;;0.80;0.80;;;;;;;1.91;79.93;100552.56;5147668;28;20420;-85
2021/12/03 00:12:07;;;;;;;1.88;1.77;;;;;;;1.87;79.49;100559.44;5164763;28;20045;-86
2021/12/03 00:14:37;;;;;;;1.50;1.40;;;;;;;1.75;80.13;100553.34;5171030;28;20057;-86
2021/12/03 00:17:08;;;;;;;0.85;0.85;;;;;;;1.82;79.51;100552.53;5189137;28;20025;-86
2021/12/03 00:19:38;;;;;;;2.03;1.92;;;;;;;1.82;79.62;100550.81;5154602;28;20042;-86
2021/12/03 00:22:09;;;;;;;3.03;1.55;;;;;;;1.74;80.00;100549.91;5167324;28;20060;-86
2021/12/03 00:24:39;;;;;;;1.33;1.30;;;;;;;1.69;79.90;100551.59;5160466;28;20033;-86
2021/12/03 00:27:10;;;;;;;1.92;1.70;;;;;;;1.90;79.77;100535.34;5188605;28;20108;-86
2021/12/03 00:29:40;;;;;;;0.95;0.95;;;;;;;1.69;79.83;100544.69;5166822;28;20121;-86
2021/12/03 00:32:11;;;;;;;2.20;1.60;;;;;;;1.67;80.12;100548.13;5160120;28;20402;-86
2021/12/03 00:34:41;;;;;;;2.00;1.90;;;;;;;1.65;80.42;100552.41;5155958;28;20042;-86
2021/12/03 00:37:12;;;;;;;3.15;1.38;;;;;;;1.55;80.89;100543.75;5164377;28;20038;-86
2021/12/03 00:39:43;;;;;;;12.45;3.55;;;;;;;1.37;81.95;100549.63;5162136;28;20041;-84
2021/12/03 00:42:16;;;;;;;1.92;1.83;;;;;;;1.35;82.20;100553.94;5150337;28;20108;-85
2021/12/03 00:44:52;;;;;;;0.98;0.98;;;;;;;1.31;82.96;100558.22;5167738;28;20095;-86
2021/12/03 00:47:24;;;;;;;1.85;1.77;;;;;;;1.32;82.99;100557.38;5147053;28;20113;-86
2021/12/03 00:49:54;;;;;;;1.05;1.05;;;;;;;1.42;82.25;100561.72;5164300;28;20042;-86
2021/12/03 00:52:25;;;;;;;1.15;1.15;;;;;;;1.40;82.27;100562.59;5167571;28;20035;-86
2021/12/03 00:54:56;;;;;;;1.98;1.88;;;;;;;1.46;82.32;100565.22;5145059;28;20045;-86
2021/12/03 00:57:26;;;;;;;0.68;0.68;;;;;;;1.52;82.07;100570.44;5178366;28;20045;-86
2021/12/03 00:59:57;;;;;;;1.05;1.05;;;;;;;1.49;82.57;100565.25;5151342;28;20046;-86
2021/12/03 01:02:28;;;;;;;2.45;2.25;;;;;;;1.60;81.92;100560.13;5160683;28;20038;-86
2021/12/03 01:04:58;;;;;;;3.45;3.13;;;;;;;1.52;82.41;100557.53;5193684;28;20049;-86
2021/12/03 01:07:29;;;;;;;0.80;0.80;;;;;;;1.59;82.15;100557.56;5152338;28;20025;-86
2021/12/03 01:09:59;;;;;;;2.42;2.25;;;;;;;1.60;82.22;100561.88;5163713;28;20033;-87
2021/12/03 01:12:30;;;;;;;1.27;1.27;;;;;;;1.81;81.56;100567.19;5152139;28;20041;-88
2021/12/03 01:15:01;;;;;;;1.25;1.25;;;;;;;1.77;81.35;100570.63;5180607;28;20061;-87
2021/12/03 01:17:32;;;;;;;1.92;1.80;;;;;;;1.59;82.24;100579.09;5170989;28;20026;-88
2021/12/03 01:20:06;;;;;;;2.00;1.92;;;;;;;1.70;81.73;100576.59;5140362;28;20048;-87
2021/12/03 01:22:38;;;;;;;2.50;2.35;;;;;;;1.66;82.40;100580.03;5154793;28;20022;-88
2021/12/03 01:25:10;;;;;;;1.13;1.13;;;;;;;1.56;82.89;100577.34;5176411;28;20534;-87
2021/12/03 01:27:41;;;;;;;3.22;3.03;;;;;;;1.64;82.73;100579.13;5149911;28;20022;-87
2021/12/03 01:30:14;;;;;;;1.45;1.40;;;;;;;1.58;82.59;100582.53;5175321;28;20052;-86
2021/12/03 01:32:46;;;;;;;1.58;1.55;;;;;;;1.54;82.93;100581.66;5172280;28;20049;-88
2021/12/03 01:35:17;;;;;;;2.92;2.75;;;;;;;1.54;82.89;100576.47;5152327;28;20117;-88
2021/12/03 01:37:49;;;;;;;1.65;1.58;;;;;;;1.57;83.32;100578.25;5158656;28;20034;-88
2021/12/03 01:40:22;;;;;;;3.05;2.85;;;;;;;1.55;83.26;100582.53;5176848;28;20034;-88
2021/12/03 01:42:53;;;;;;;;;;;;;;;1.50;83.31;100579.91;5171387;28;20129;-88
2021/12/03 01:45:28;;;;;;;1.20;1.20;;;;;;;1.54;83.31;100579.06;5158322;28;19957;-87
2021/12/03 01:48:01;;;;;;;1.25;1.23;;;;;;;1.55;83.80;100580.78;5175400;28;20049;-87
2021/12/03 01:50:40;;;;;;;1.90;1.80;;;;;;;1.45;83.53;100578.97;5159362;28;20405;-88
2021/12/03 01:53:13;;;;;;;1.52;1.45;;;;;;;1.48;84.11;100583.34;5157655;28;20029;-88
2021/12/03 01:55:45;;;;;;;1.80;1.73;;;;;;;1.44;84.46;100582.44;5176191;28;20115;-88
2021/12/03 01:58:16;;;;;;;6.07;2.05;;;;;;;1.55;84.29;100593.72;5147308;28;20500;-88
2021/12/03 02:00:53;;;;;;;1.23;1.23;;;;;;;1.53;83.89;100590.25;5136192;28;20041;-87
2021/12/03 02:03:27;;;;;;;1.15;1.15;;;;;;;1.50;84.38;100598.00;5162621;28;20431;-88
2021/12/03 02:05:58;;;;;;;3.05;2.38;;;;;;;1.57;84.54;100602.38;5157207;28;20053;-88
2021/12/03 02:08:29;;;;;;;0.98;0.98;;;;;;;1.57;83.99;100598.94;5158897;28;20060;-88
2021/12/03 02:11:01;;;;;;;0.95;0.95;;;;;;;1.49;84.68;100606.63;5157651;28;20416;-87
2021/12/03 02:13:32;;;;;;;2.13;1.92;;;;;;;1.57;84.13;100607.53;5159499;28;20083;-88
2021/12/03 02:16:04;;;;;;;2.45;2.25;;;;;;;1.59;84.42;100610.13;5137160;28;20032;-87
2021/12/03 02:18:35;;;;;;;2.28;2.10;;;;;;;1.68;83.44;100607.63;5150699;28;20033;-87
2021/12/03 02:21:08;;;;;;;0.43;0.43;;;;;;;1.76;83.22;100599.03;5159343;28;20381;-88
2021/12/03 02:23:40;;;;;;;1.00;1.00;;;;;;;1.69;83.52;100604.19;5160293;28;20037;-87
2021/12/03 02:26:11;;;;;;;1.25;1.25;;;;;;;1.83;83.53;100598.22;5180464;28;20677;-88
2021/12/03 02:28:46;;;;;;;0.98;0.98;;;;;;;2.02;82.13;100596.66;5145180;28;20119;-87
2021/12/03 02:31:19;;;;;;;1.58;1.48;;;;;;;1.97;82.80;100594.03;5160665;28;20025;-88
2021/12/03 02:33:51;;;;;;;1.70;1.60;;;;;;;1.96;82.84;100588.84;5183209;28;20444;-88
2021/12/03 02:36:22;;;;;;;2.20;2.08;;;;;;;1.91;82.91;100593.97;5157219;28;20522;-88
2021/12/03 02:38:53;;;;;;;1.17;1.17;;;;;;;1.94;83.52;100593.16;5158164;28;20048;-88
2021/12/03 02:41:24;;;;;;;0.82;0.82;;;;;;;1.89;83.78;100595.72;5181936;28;20451;-88
2021/12/03 02:43:54;;;;;;;1.15;1.13;;;;;;;1.87;83.77;100589.66;5184921;28;20049;-87
2021/12/03 02:46:24;;;;;;;1.67;1.55;;;;;;;1.78;84.36;100589.59;5165464;28;20389;-88
2021/12/03 02:48:55;;;;;;;0.82;0.82;;;;;;;1.79;83.96;100589.59;5180255;28;20049;-88
2021/12/03 02:51:26;;;;;;;1.77;1.67;;;;;;;1.94;83.44;100583.66;5164137;28;20164;-87
2021/12/03 02:53:56;;;;;;;3.50;1.95;;;;;;;1.79;84.65;100592.16;5183358;28;20523;-88
2021/12/03 02:56:27;;;;;;;1.55;1.45;;;;;;;1.79;84.33;100587.00;5151312;28;20264;-88
2021/12/03 02:58:57;;;;;;;1.65;1.55;;;;;;;1.78;84.77;100585.25;5160757;28;20492;-87
2021/12/03 03:01:28;;;;;;;2.10;2.00;;;;;;;1.72;85.13;100593.00;5142501;28;20022;-87
2021/12/03 03:03:58;;;;;;;1.27;1.27;;;;;;;1.77;84.86;100591.31;5179686;28;20041;-87
2021/12/03 03:06:30;;;;;;;1.00;1.00;;;;;;;1.79;84.79;100589.59;5165402;28;20226;-88
2021/12/03 03:09:02;;;;;;;0.93;0.93;;;;;;;1.84;84.85;100584.44;5179831;28;20034;-87
2021/12/03 03:11:34;;;;;;;0.93;0.93;;;;;;;1.81;85.24;100585.28;5149597;28;20407;-87
2021/12/03 03:14:05;;;;;;;1.15;1.15;;;;;;;1.89;84.29;100587.94;5158987;28;20385;-88
2021/12/03 03:16:36;;;;;;;0.60;0.60;;;;;;;1.87;84.48;100587.91;5191569;28;20081;-88
2021/12/03 03:19:12;;;;;;;2.35;2.25;;;;;;;1.89;84.84;100595.72;5146306;28;20042;-88
2021/12/03 03:21:44;;;;;;;1.80;1.70;;;;;;;1.95;84.75;100605.22;5156365;28;20029;-88
2021/12/03 03:24:17;;;;;;;1.80;1.70;;;;;;;1.88;84.27;100597.41;5175491;28;20107;-88
2021/12/03 03:26:47;;;;;;;1.63;1.60;;;;;;;1.98;83.90;100606.13;5150909;28;20116;-87
2021/12/03 03:29:18;;;;;;;1.73;1.63;;;;;;;2.02;83.69;100594.91;5143499;28;20544;-87
2021/12/03 03:31:48;;;;;;;1.20;1.20;;;;;;;1.99;83.71;100591.44;5157686;28;20025;-87
2021/12/03 03:34:19;;;;;;;1.10;1.10;;;;;;;2.10;83.75;100584.63;5184472;28;20112;-87
2021/12/03 03:36:51;;;;;;;1.02;1.02;;;;;;;2.10;83.64;100583.75;5174884;28;20029;-88
2021/12/03 03:39:21;;;;;;;1.27;1.27;;;;;;;2.25;83.04;100577.78;5183590;28;20095;-88
2021/12/03 03:41:52;;;;;;;0.82;0.80;;;;;;;2.28;83.09;100575.19;5182912;28;20030;-89
2021/12/03 03:44:22;;;;;;;1.50;1.48;;;;;;;2.23;83.59;100569.13;5161920;28;20053;-88
2021/12/03 03:46:54;;;;;;;0.50;0.50;;;;;;;2.38;83.19;100569.22;5183798;28;20044;-88
2021/12/03 03:49:24;;;;;;;0.57;0.57;;;;;;;2.43;82.20;100577.00;5147734;28;20085;-87
2021/12/03 03:51:55;;;;;;;0.93;0.93;;;;;;;2.37;83.09;100567.47;5168138;28;20350;-87
2021/12/03 03:54:26;;;;;;;1.88;1.75;;;;;;;2.34;82.69;100573.50;5165508;28;20064;-88
2021/12/03 03:56:57;;;;;;;0.90;0.90;;;;;;;2.39;82.83;100576.13;5175231;28;20034;-88
2021/12/03 03:59:28;;;;;;;1.40;1.30;;;;;;;2.45;82.50;100581.31;5175804;28;20045;-88
2021/12/03 04:01:58;;;;;;;2.38;2.28;;;;;;;2.30;83.37;100571.78;5146988;28;20076;-87
2021/12/03 04:04:29;;;;;;;1.50;1.42;;;;;;;2.18;83.72;100569.13;5156192;28;20048;-87
2021/12/03 04:06:59;;;;;;;2.22;2.03;;;;;;;2.16;83.44;100571.72;5161198;28;20272;-87
2021/12/03 04:09:30;;;;;;;2.08;1.98;;;;;;;2.11;84.01;100580.31;5165407;28;20038;-88
2021/12/03 04:12:01;;;;;;;2.55;2.35;;;;;;;2.10;84.13;100574.28;5161611;28;20057;-88
2021/12/03 04:14:31;;;;;;;1.30;1.30;;;;;;;2.04;84.52;100567.34;5172419;28;20073;-87
2021/12/03 04:17:02;;;;;;;2.33;2.17;;;;;;;2.04;84.90;100569.03;5161506;28;20056;-88
2021/12/03 04:19:32;;;;;;;0.90;0.90;;;;;;;1.98;85.22;100562.13;5168364;28;20096;-88
2021/12/03 04:22:04;;;;;;;3.83;1.88;;;;;;;1.98;85.00;100556.06;5142221;28;20029;-88
2021/12/03 04:24:35;;;;;;;0.90;0.90;;;;;;;1.98;85.85;100558.66;5150215;28;20038;-87
2021/12/03 04:27:06;;;;;;;1.30;1.27;;;;;;;1.96;85.70;100550.91;5167337;28;20488;-88
2021/12/03 04:29:36;;;;;;;5.03;4.63;;;;;;;2.02;85.98;100565.59;5144392;28;20044;-87
2021/12/03 04:32:08;;;;;;;1.10;1.10;;;;;;;1.97;85.06;100552.63;5146491;28;20029;-88
2021/12/03 04:34:39;;;;;;;1.63;1.52;;;;;;;1.96;85.38;100553.47;5164420;28;20092;-88
2021/12/03 04:37:09;;;;;;;1.60;1.50;;;;;;;1.95;85.70;100554.34;5146055;28;20030;-88
2021/12/03 04:39:40;;;;;;;2.03;1.92;;;;;;;1.94;85.94;100546.56;5183759;28;20041;-88
2021/12/03 04:42:11;;;;;;;0.60;0.60;;;;;;;1.96;85.89;100550.00;5158112;28;20113;-88
2021/12/03 04:44:41;;;;;;;1.20;1.20;;;;;;;1.92;85.61;100543.97;5149996;28;20080;-88
2021/12/03 04:47:12;;;;;;;2.15;1.98;;;;;;;1.93;86.15;100547.44;5142671;28;20460;-88
2021/12/03 04:49:42;;;;;;;3.10;2.90;;;;;;;1.97;85.87;100537.09;5142785;28;20514;-88
2021/12/03 04:52:13;;;;;;;1.10;1.10;;;;;;;2.04;85.48;100537.97;5159561;28;20038;-88
2021/12/03 04:54:44;;;;;;;1.00;0.98;;;;;;;2.08;85.70;100539.75;5177080;28;20045;-88
2021/12/03 04:57:15;;;;;;;1.00;1.00;;;;;;;1.99;85.77;100524.16;5164163;28;20547;-87
2021/12/03 04:59:45;;;;;;;2.22;1.42;;;;;;;1.99;85.63;100530.19;5171355;28;20058;-87
2021/12/03 05:02:18;;;;;;;1.05;1.05;;;;;;;2.04;85.61;100532.81;5164768;28;20033;-88
2021/12/03 05:04:49;;;;;;;1.10;1.10;;;;;;;2.03;84.92;100533.66;5154023;28;20042;-88
2021/12/03 05:07:53;;;;;;;2.30;2.15;;;;;;;2.02;85.37;100550.06;5164554;28;20594;-88
2021/12/03 05:10:22;;;;;;;0.55;0.55;;;;;;;2.06;85.30;100556.97;5158704;28;20104;-87
2021/12/03 05:12:56;;;;;;;0.50;0.50;;;;;;;2.04;85.60;100559.56;5164794;28;20046;-88
2021/12/03 05:15:27;;;;;;;1.98;1.88;;;;;;;2.03;85.85;100552.66;5148621;28;20524;-88
2021/12/03 05:17:57;;;;;;;3.28;3.00;;;;;;;2.03;85.76;100556.94;5151326;28;20030;-88
2021/12/03 05:20:28;;;;;;;0.93;0.93;;;;;;;2.02;85.78;100556.09;5159615;28;20038;-87
2021/12/03 05:23:00;;;;;;;2.60;2.42;;;;;;;2.04;85.74;100551.81;5155956;28;20022;-88
2021/12/03 05:25:31;;;;;;;1.55;1.48;;;;;;;2.08;85.89;100560.44;5145173;28;20042;-88
2021/12/03 05:28:03;;;;;;;2.85;2.25;;;;;;;2.11;85.75;100554.41;5163313;28;20350;-88
2021/12/03 05:30:34;;;;;;;1.70;1.63;;;;;;;2.09;85.18;100550.94;5168200;28;21071;-88
2021/12/03 05:33:05;;;;;;;0.95;0.95;;;;;;;2.07;85.82;100548.34;5140900;28;20088;-88
2021/12/03 05:35:36;;;;;;;2.42;1.58;;;;;;;2.07;85.97;100547.50;5163047;28;20115;-88
2021/12/03 05:38:07;;;;;;;2.20;2.10;;;;;;;2.17;85.19;100557.91;5140867;28;20169;-88
2021/12/03 05:40:37;;;;;;;0.80;0.80;;;;;;;2.06;85.68;100554.38;5160766;28;20124;-88
2021/12/03 05:43:08;;;;;;;1.50;1.40;;;;;;;2.11;85.95;100555.28;5162354;28;20033;-89
2021/12/03 05:45:39;;;;;;;0.98;0.98;;;;;;;2.11;85.68;100560.44;5159705;28;20038;-88
2021/12/03 05:48:09;;;;;;;1.55;1.48;;;;;;;2.11;85.93;100547.50;5157395;28;20026;-88
2021/12/03 05:50:41;;;;;;;2.05;1.95;;;;;;;2.11;86.03;100552.69;5165014;28;20038;-88
2021/12/03 05:53:12;;;;;;;0.70;0.70;;;;;;;2.15;85.77;100551.84;5188821;28;20034;-87
2021/12/03 05:55:43;;;;;;;4.07;3.53;;;;;;;2.07;85.91;100550.09;5152897;28;20049;-87
2021/12/03 05:58:16;;;;;;;2.70;2.50;;;;;;;2.13;86.19;100547.53;5162087;28;20033;-85
2021/12/03 06:00:47;;;;;;;1.23;1.20;;;;;;;2.13;85.84;100553.56;5143920;28;20034;-85
2021/12/03 06:03:18;;;;;;;0.68;0.68;;;;;;;2.14;85.90;100549.25;5145093;28;20319;-85
2021/12/03 06:05:49;;;;;;;0.68;0.68;;;;;;;2.19;85.96;100553.56;5154582;28;20045;-85
2021/12/03 06:08:20;;;;;;;1.02;1.02;;;;;;;2.17;86.27;100555.31;5167238;28;20026;-85
2021/12/03 06:10:51;;;;;;;0.75;0.75;;;;;;;2.19;85.82;100556.16;5156891;28;20064;-87
2021/12/03 06:13:21;;;;;;;3.22;3.00;;;;;;;2.23;85.86;100557.06;5168368;28;20034;-84
2021/12/03 06:15:52;;;;;;;0.70;0.70;;;;;;;2.22;85.53;100559.63;5166606;28;20052;-84
2021/12/03 06:18:22;;;;;;;1.38;1.38;;;;;;;2.24;85.56;100555.34;5190366;28;20219;-85
2021/12/03 06:20:53;;;;;;;4.43;1.52;;;;;;;2.21;85.69;100551.03;5205762;28;20073;-82
2021/12/03 06:23:23;;;;;;;2.65;2.45;;;;;;;2.28;85.29;100555.38;5197936;28;20026;-82
2021/12/03 06:25:54;;;;;;;1.45;1.40;;;;;;;2.32;85.28;100554.50;5161263;28;20057;-84
2021/12/03 06:28:28;;;;;;;2.85;1.67;;;;;;;2.29;85.37;100548.44;5148814;28;20402;-84
2021/12/03 06:30:58;;;;;;;2.95;2.75;;;;;;;2.28;85.59;100562.25;5140853;28;20136;-83
2021/12/03 06:33:29;;;;;;;2.42;2.25;;;;;;;2.28;85.14;100557.94;5162467;28;20547;-88
2021/12/03 06:36:00;;;;;;;0.75;0.75;;;;;;;2.27;85.48;100560.53;5167198;28;20033;-92
2021/12/03 06:38:31;;;;;;;2.15;1.95;;;;;;;2.24;85.52;100561.38;5159741;28;20049;-87
2021/12/03 06:41:02;;;;;;;1.50;1.40;;;;;;;2.29;85.17;100558.81;5148041;28;20040;-85
2021/12/03 06:43:34;;;;;;;4.55;1.83;;;;;;;2.35;84.70;100556.25;5181818;28;20053;-84
2021/12/03 06:46:04;;;;;;;1.25;1.13;;;;;;;2.30;84.79;100543.28;5159308;28;20038;-89
2021/12/03 06:48:35;;;;;;;0.50;0.50;;;;;;;2.33;84.46;100547.63;5146917;28;20026;-85
2021/12/03 06:51:05;;;;;;;0.35;0.35;;;;;;;2.31;84.57;100555.38;5159292;28;20025;-87
2021/12/03 06:53:46;;;;;;;1.00;1.00;;;;;;;2.29;84.52;100548.44;5157078;28;20045;-86
2021/12/03 06:56:21;;;;;;;0.85;0.85;;;;;;;2.31;84.45;100551.91;5142445;28;20029;-89
2021/12/03 06:58:52;;;;;;;1.70;1.60;;;;;;;2.31;84.76;100546.75;5184212;28;20038;-84
2021/12/03 07:01:22;;;;;;;0.75;0.75;;;;;;;2.29;83.59;100553.63;5158245;28;20037;-84
2021/12/03 07:03:52;;;;;;;0.85;0.85;;;;;;;2.34;83.27;100546.75;5173830;28;20054;-83
2021/12/03 07:06:23;;;;;;;0.43;0.43;;;;;;;2.23;83.79;100551.03;5160329;28;20030;-83
2021/12/03 07:08:53;;;;;;;0.95;0.95;;;;;;;2.25;83.66;100555.34;5173836;28;20042;-83
2021/12/03 07:11:24;;;;;;;0.40;0.40;;;;;;;2.33;83.41;100563.16;5170381;28;20089;-83
2021/12/03 07:13:55;;;;;;;0.63;0.63;;;;;;;2.30;83.15;100552.78;5177260;28;20045;-82
2021/12/03 07:16:26;;;;;;;0.63;0.63;;;;;;;2.28;83.53;100549.31;5191872;28;20041;-83
2021/12/03 07:18:57;;;;;;;5.82;2.72;;;;;;;2.32;83.72;100548.47;5172346;28;21993;-83
2021/12/03 07:21:27;;;;;;;0.50;0.50;;;;;;;2.28;83.05;100545.00;5166323;28;20088;-84
2021/12/03 07:23:58;;;;;;;6.65;3.60;;;;;;;2.39;82.71;100544.19;5171455;28;20042;-83
2021/12/03 07:26:29;;;;;;;1.95;1.45;;;;;;;2.29;82.68;100538.09;5192563;28;20034;-83
2021/12/03 07:28:59;;;;;;;0.88;0.88;;;;;;;2.29;82.25;100538.97;5169366;28;20038;-82
2021/12/03 07:31:30;;;;;;;1.13;1.13;;;;;;;2.24;81.92;100551.00;5166972;28;20030;-82
2021/12/03 07:34:00;;;;;;;3.78;2.40;;;;;;;2.26;82.49;100548.44;5181523;28;20049;-82
2021/12/03 07:36:31;;;;;;;0.88;0.88;;;;;;;2.22;81.95;100547.56;5187285;28;20053;-82
2021/12/03 07:39:03;;;;;;;0.52;0.52;;;;;;;2.26;80.73;100541.53;5197131;28;20035;-83
2021/12/03 07:41:36;;;;;;;0.40;0.40;;;;;;;2.27;81.29;100539.84;5199675;28;20316;-82
2021/12/03 07:44:08;;;;;;;5.13;2.20;;;;;;;2.25;80.70;100544.13;5197472;28;20080;-83
2021/12/03 07:46:39;;;;;;;1.50;1.45;;;;;;;2.24;80.35;100542.41;5176470;28;20038;-83
2021/12/03 07:49:09;;;;;;;3.17;1.67;;;;;;;2.26;79.43;100541.53;5152666;28;20044;-84
2021/12/03 07:51:40;;;;;;;0.63;0.63;;;;;;;2.16;79.59;100538.06;5162832;28;20049;-83
2021/12/03 07:54:11;;;;;;;0.80;0.80;;;;;;;2.19;78.81;100542.38;5172418;28;20045;-83
2021/12/03 07:56:41;;;;;;;1.20;1.20;;;;;;;2.22;79.07;100544.09;5185520;28;20082;-83
2021/12/03 07:59:12;;;;;;;0.43;0.43;;;;;;;2.29;78.83;100538.09;5175288;28;20038;-83
2021/12/03 08:01:44;;;;;;;0.73;0.73;;;;;;;2.26;78.75;100538.09;5188109;28;20042;-84
2021/12/03 08:04:15;;;;;;;0.93;0.93;;;;;;;2.36;79.14;100529.47;5164472;28;20415;-83
2021/12/03 08:06:51;;;;;;;1.58;1.48;;;;;;;2.29;78.42;100541.56;5178129;28;20089;-83
2021/12/03 08:09:22;;;;;;;0.50;0.50;;;;;;;2.31;78.48;100538.97;5189928;28;20153;-84
2021/12/03 08:11:53;;;;;;;3.15;1.65;;;;;;;2.33;77.33;100540.69;5173717;28;20029;-83
2021/12/03 08:14:24;;;;;;;0.75;0.75;;;;;;;2.23;78.03;100545.84;5185670;28;20049;-84
2021/12/03 08:16:54;;;;;;;0.90;0.90;;;;;;;2.26;78.12;100543.28;5174061;28;20029;-83
2021/12/03 08:19:25;;;;;;;0.68;0.68;;;;;;;2.41;78.88;100550.22;5186386;28;20365;-84
2021/12/03 08:21:55;;;;;;;0.50;0.50;;;;;;;2.28;77.81;100557.06;5169017;28;20439;-85
2021/12/03 08:24:26;;;;;;;0.73;0.73;;;;;;;2.30;77.63;100555.34;5176466;28;20038;-84
2021/12/03 08:26:56;;;;;;;0.40;0.40;;;;;;;2.36;77.96;100555.38;5162639;28;20018;-84
2021/12/03 08:29:27;;;;;;;0.90;0.90;;;;;;;2.33;78.16;100561.41;5164533;28;20038;-84
2021/12/03 08:31:58;;;;;;;0.55;0.55;;;;;;;2.34;78.21;100557.97;5181334;28;20208;-85
2021/12/03 08:34:29;;;;;;;0.57;0.57;;;;;;;2.34;77.98;100560.56;5156181;28;20515;-85
2021/12/03 08:37:00;;;;;;;0.50;0.50;;;;;;;2.41;78.37;100553.69;5157708;28;20022;-84
2021/12/03 08:39:30;;;;;;;1.65;1.30;;;;;;;2.41;77.70;100545.91;5164070;28;20037;-83
2021/12/03 08:42:02;;;;;;;0.80;0.80;;;;;;;2.45;77.85;100550.25;5188327;28;20104;-85
2021/12/03 08:44:33;;;;;;;1.00;1.00;;;;;;;2.40;78.41;100546.78;5181142;28;20120;-84
2021/12/03 08:47:05;;;;;;;0.80;0.77;;;;;;;2.52;78.66;100535.59;5158959;28;20068;-84
2021/12/03 08:49:39;;;;;;;1.13;1.13;;;;;;;2.49;78.36;100541.63;5152673;28;20529;-85
2021/12/03 08:52:24;;;;;;;2.00;1.90;;;;;;;2.48;78.04;100542.50;5169816;28;20552;-85
2021/12/03 08:54:55;;;;;;;1.38;1.33;;;;;;;2.48;77.89;100532.13;5151609;28;20300;-86
2021/12/03 08:57:30;;;;;;;1.17;1.17;;;;;;;2.41;78.71;100545.91;5160608;28;20073;-85
2021/12/03 09:00:08;;;;;;;0.45;0.45;;;;;;;2.47;78.74;100535.56;5140628;28;20535;-86
2021/12/03 09:02:40;;;;;;;0.43;0.43;;;;;;;2.49;78.81;100541.63;5180610;28;20037;-85
2021/12/03 09:05:12;;;;;;;0.65;0.65;;;;;;;2.49;78.03;100539.03;5151166;28;20044;-86
2021/12/03 09:07:43;;;;;;;2.13;1.75;;;;;;;2.54;78.05;100538.19;5190411;28;20052;-87
2021/12/03 09:10:14;;;;;;;1.58;1.40;;;;;;;2.57;78.29;100533.88;5160354;28;20041;-85
2021/12/03 09:12:44;;;;;;;0.57;0.57;;;;;;;2.58;77.66;100535.59;5185388;28;20606;-87
2021/12/03 09:15:17;;;;;;;0.40;0.40;;;;;;;2.59;78.34;100532.16;5165917;28;20504;-86
2021/12/03 09:23:08;;;;;;;20.77;2.15;;;;;;;2.70;77.71;100524.41;5185332;28;20438;-83
2021/12/03 09:25:46;;;;;;;0.50;0.50;;;;;;;2.74;78.25;100526.16;5183871;28;20038;-83
2021/12/03 09:28:17;;;;;;;0.50;0.50;;;;;;;2.73;77.99;100528.75;5157417;28;20026;-84
2021/12/03 09:30:48;;;;;;;0.55;0.55;;;;;;;2.68;77.93;100526.16;5170559;28;20068;-83
2021/12/03 09:33:22;;;;;;;1.48;1.42;;;;;;;2.76;78.17;100534.81;5170631;28;20030;-84
2021/12/03 09:35:56;;;;;;;0.98;0.98;;;;;;;2.75;77.19;100533.06;5194971;28;20068;-83
2021/12/03 09:38:31;;;;;;;5.88;1.85;;;;;;;2.72;77.59;100537.38;5172112;28;20320;-83
2021/12/03 09:41:06;;;;;;;0.90;0.90;;;;;;;2.74;77.34;100530.44;5149475;28;20052;-83
2021/12/03 09:43:40;;;;;;;0.60;0.60;;;;;;;2.77;77.65;100520.09;5171855;28;20090;-83
2021/12/03 09:46:18;;;;;;;0.40;0.40;;;;;;;2.75;77.91;100522.72;5158128;28;20059;-84
2021/12/03 09:51:40;;;;;;;0.50;0.50;;;;;;;2.82;77.85;100516.66;5185037;28;20388;-84
2021/12/03 09:54:29;;;;;;;0.40;0.40;;;;;;;2.83;76.42;100514.94;5167088;28;20049;-83
2021/12/03 09:57:30;;;;;;;0.40;0.40;;;;;;;2.87;76.90;100516.69;5172564;28;20100;-84
2021/12/03 10:03:36;;;;;;;2.28;2.15;;;;;;;2.86;75.75;100514.94;5185530;28;20026;-84
2021/12/03 10:14:34;;;;;;;0.43;0.43;;;;;;;2.88;74.82;100513.22;5161381;28;20038;-83
2021/12/03 10:34:06;;;;;;;0.40;0.40;;;;;;;3.03;75.18;100486.44;5101067;28;20049;-83
2021/12/03 10:53:42;;;;;;;1.02;0.98;;;;;;;3.17;75.13;100454.47;5167527;28;20029;-84
2021/12/03 11:15:23;;;;;;;0.40;0.40;;;;;;;3.29;73.78;100392.22;5181242;28;20186;-83
2021/12/03 11:29:03;;;;;;;1.50;1.40;;;;;;;3.45;74.02;100375.72;5163251;28;20045;-82
2021/12/03 12:13:12;;;;;;;0.60;0.60;;;;;;;3.70;72.88;100315.13;5188272;28;20036;-84
2021/12/03 12:18:10;;;;;;;0.75;0.75;;;;;;;3.77;73.32;100314.22;5182658;28;20064;-85
2021/12/03 12:26:10;;;;;;;0.63;0.63;;;;;;;3.86;73.01;100303.78;5183913;28;20042;-83
2021/12/03 14:15:13;;;;;;;;;;;;;;;;;;;;;
2021/12/03 14:53:19;;;;;;;0.70;0.70;;;;;;;4.02;71.20;100134.94;5193013;28;20041;-91
2021/12/03 14:55:55;;;;;;;0.50;0.50;;;;;;;4.02;71.99;100122.78;5150511;28;20038;-90
2021/12/03 14:58:37;;;;;;;0.45;0.45;;;;;;;3.98;72.65;100113.34;5155592;28;20516;-83
2021/12/03 15:07:03;;;;;;;0.50;0.50;;;;;;;4.01;71.64;100110.69;5127916;28;20554;-83
2021/12/03 15:09:39;;;;;;;0.30;0.30;;;;;;;3.96;72.32;100111.63;5155480;28;20046;-84
2021/12/03 15:31:31;;;;;;;0.50;0.50;;;;;;;3.93;72.09;100113.38;5183043;28;20041;-83
2021/12/03 15:36:47;;;;;;;0.50;0.50;;;;;;;3.90;72.12;100102.16;5173470;28;20045;-83
2021/12/03 15:56:16;;;;;;;0.50;0.50;;;;;;;3.91;72.70;100067.53;5167790;28;20042;-83
2021/12/03 16:04:25;;;;;;;0.40;0.40;;;;;;;4.00;72.66;100051.88;5185969;28;20067;-83
2021/12/03 16:12:24;;;;;;;0.50;0.50;;;;;;;4.07;72.43;100037.94;5166016;28;20030;-83
2021/12/03 16:17:42;;;;;;;;;;;;;;;;;;;;;
2021/12/03 16:25:36;;;;;;;0.40;0.40;;;;;;;4.06;73.06;100041.41;5185893;28;20096;-83
2021/12/03 16:53:00;;;;;;;0.50;0.50;;;;;;;4.11;73.29;100010.22;5204754;28;20034;-83
2021/12/03 16:55:31;;;;;;;0.57;0.57;;;;;;;4.16;73.27;100020.53;5197583;28;20267;-83
2021/12/03 16:58:02;;;;;;;0.50;0.50;;;;;;;4.19;73.82;100010.09;5165902;28;20042;-82
2021/12/03 17:00:38;;;;;;;0.50;0.50;;;;;;;4.14;73.55;100007.56;5164703;28;20042;-83
2021/12/03 17:03:21;;;;;;;0.50;0.50;;;;;;;4.19;73.41;100004.91;5184391;28;20030;-83
2021/12/03 17:14:17;;;;;;;0.40;0.40;;;;;;;4.17;73.52;100004.09;5206254;28;20045;-82
2021/12/03 17:47:42;;;;;;;0.50;0.50;;;;;;;4.14;75.06;99991.97;5185495;28;20095;-84
2021/12/03 18:01:11;;;;;;;1.05;0.98;;;;;;;4.18;76.56;99966.84;5171723;28;20041;-83
2021/12/03 18:03:49;;;;;;;;;;;;;;;;;;;;;
2021/12/03 18:08:53;;;;;;;0.60;0.60;;;;;;;4.08;77.99;99950.53;5182736;28;20088;-84
2021/12/03 18:55:39;;;;;;;0.40;0.40;;;;;;;4.38;75.73;99871.34;5180587;28;20066;-83
2021/12/03 18:58:10;;;;;;;0.47;0.47;;;;;;;4.32;76.68;99861.06;5154261;28;20483;-83
2021/12/03 19:00:44;;;;;;;0.98;0.98;;;;;;;4.31;76.67;99853.25;5159902;28;20044;-82
2021/12/03 19:03:56;;;;;;;0.80;0.80;;;;;;;4.40;76.61;99854.00;5178406;28;20034;-82
2021/12/03 19:06:21;;;;;;;0.50;0.50;;;;;;;4.37;76.32;99854.03;5186249;28;20038;-82
2021/12/03 19:09:15;;;;;;;2.63;2.03;;;;;;;4.45;76.86;99845.25;5165594;28;20069;-84
2021/12/03 19:14:23;;;;;;;1.27;1.27;;;;;;;4.58;76.92;99828.63;5178321;28;20033;-87
2021/12/03 19:16:53;;;;;;;0.40;0.40;;;;;;;4.56;76.54;99833.81;5160392;28;20393;-86
2021/12/03 19:19:24;;;;;;;0.47;0.47;;;;;;;4.57;76.51;99821.69;5173789;28;20497;-85
2021/12/03 19:21:58;;;;;;;0.60;0.60;;;;;;;4.57;76.18;99814.75;5188077;28;20033;-86
2021/12/03 19:24:28;;;;;;;0.50;0.50;;;;;;;4.50;77.12;99812.28;5155903;28;20339;-85
2021/12/03 19:26:59;;;;;;;0.60;0.60;;;;;;;4.55;76.84;99821.69;5186856;28;20033;-86
2021/12/03 19:29:32;;;;;;;6.50;1.52;;;;;;;4.51;76.62;99824.38;5169855;28;20233;-85
2021/12/03 19:32:02;;;;;;;0.60;0.60;;;;;;;4.44;75.95;99823.63;5140932;28;20033;-85
2021/12/03 19:34:33;;;;;;;0.57;0.57;;;;;;;4.51;75.25;99819.19;5162688;28;20053;-86
2021/12/03 19:37:04;;;;;;;0.40;0.40;;;;;;;4.50;75.76;99817.50;5173161;28;20096;-85
2021/12/03 19:39:37;;;;;;;0.47;0.47;;;;;;;4.45;75.03;99819.28;5187683;28;20045;-84
2021/12/03 19:47:13;;;;;;;1.10;0.95;;;;;;;4.49;75.15;99820.97;5179122;28;20096;-84
2021/12/03 19:50:06;;;;;;;0.47;0.47;;;;;;;4.43;74.96;99821.91;5159603;28;20070;-86
2021/12/03 19:52:46;;;;;;;0.50;0.50;;;;;;;4.39;75.21;99815.91;5178726;28;20026;-84